Airfield :
LOGIN :

Register | Disclaimer

   EN    FR    IT 

 










Legend :    VFR   Marginal VFR   IFR   Intensive IFR   Very Intensive IFR
Visi :
Ceiling :
>= 8 km
>= 3000ft
5 to 8 km
1000 to 3000 ft
1500m to 5 km
500 to 1000 ft
800 to 1500m
200 to 500 ft
< 800m
< 200 ft
Symbols :   Thunderstorms  Fog  Heavy snow  Heavy precipitations  Wind > 20 kt
SIGMETs :     Misc.  Thunderstorms  Icing  Turbulence  Mountain Waves  Volcanic Ashes







- Airport Elevation : 1234 ft
- IATA code : LUX


ELLX - Luxembourg Findel

CURRENT METAR :
  • 171650Z 22005KT 180V270 9999 BKN030 20/17 Q1018 NOSIG

EXPIRED METARs :
  • 171620Z 23006KT 9999 SCT030 BKN060 20/17 Q1018 NOSIG
  • 171550Z 25008KT 9999 FEW007 BKN025 19/17 Q1018 NOSIG
  • 171520Z 24009KT 9999 SCT012 BKN020 19/17 Q1019 NOSIG
  • 171450Z 25012KT 9999 FEW010 BKN024 19/16 Q1019 NOSIG
  • 171420Z AUTO 25015KT 9999 DZ FEW011/// BKN026/// OVC029/// 20/16 Q1019 NOSIG

TAF TAF ELLX
Valid from the 17 at 12:00 until the 18 at 18:00 UTC


171100Z 1712/1818 24012KT 9999 SCT030
BECMG 1716/1718 21007KT BKN030
BECMG 1803/1805 7000 -RA SCT012 BKN020
TEMPO 1806/1810 24015G25KT 4000 RA SHRA SCT006 SCT012TCU BKN015
BECMG 1811/1813 27010KT 9999 NSW SCT025
TEMPO 1813/1818 7000 -SHRA BKN015
ATIS : +352 4798 27300
Met : +352 4798 27010 / 27050
No reported NOTAMs for that airfield.



MET'MAP, your aeronautical weather chart ! - Copyright ORBIFLY December 2007 - Disclaimer

ORBIFLY MET'MAP TEAM :

Programming & Development : Alexandra Zaïnal
Concept & Development : Baudouin d'Aumeries
Co-Development & Prog : Marc-Olivier Méhu
Technical & hardware support : Manuel Goepfert

Contact : metmap@orbifly.com




SOURCES & CREDITS :

   NOAA